createdAt,value
2023-01-18T00:00:14.705Z,84.15
2023-01-18T00:02:42.485Z,84.03
2023-01-18T00:05:10.260Z,84.63
2023-01-18T00:07:38.005Z,84.22
2023-01-18T00:10:06.389Z,84.32
2023-01-18T00:12:34.147Z,84.58
2023-01-18T00:15:01.830Z,84.45
2023-01-18T00:17:29.545Z,84.88
2023-01-18T00:19:57.203Z,84.03
2023-01-18T00:22:25.383Z,84.09
2023-01-18T00:24:53.021Z,84.33
2023-01-18T00:27:21.339Z,84.63
2023-01-18T00:29:49.057Z,84.21
2023-01-18T00:32:17.099Z,84.44
2023-01-18T00:34:45.032Z,84.28
2023-01-18T00:37:12.751Z,84.10
2023-01-18T00:39:41.116Z,84.46
2023-01-18T00:42:26.788Z,85.08
2023-01-18T00:44:54.836Z,84.43
2023-01-18T00:47:22.440Z,84.41
2023-01-18T00:49:50.167Z,84.76
2023-01-18T00:52:17.768Z,84.66
2023-01-18T00:54:45.435Z,84.15
2023-01-18T00:57:13.640Z,84.47
2023-01-18T00:59:59.342Z,84.61
2023-01-18T01:02:27.097Z,84.47
2023-01-18T01:05:12.009Z,84.73
2023-01-18T01:07:40.240Z,84.04
2023-01-18T01:10:09.869Z,84.20
2023-01-18T01:12:55.475Z,84.70
2023-01-18T01:15:41.050Z,84.30
2023-01-18T01:18:26.457Z,84.56
2023-01-18T01:21:11.514Z,84.75
2023-01-18T01:23:56.510Z,84.90
2023-01-18T01:26:24.170Z,84.80
2023-01-18T01:28:51.782Z,84.45
2023-01-18T01:31:19.424Z,84.55
2023-01-18T01:33:49.100Z,84.67
2023-01-18T01:36:16.770Z,84.83
2023-01-18T01:38:44.674Z,84.47
2023-01-18T01:41:12.664Z,84.72
2023-01-18T01:43:40.289Z,84.67
2023-01-18T01:46:08.283Z,84.60
2023-01-18T01:48:35.896Z,84.03
2023-01-18T01:51:03.975Z,84.33
2023-01-18T01:53:32.057Z,84.67
2023-01-18T01:55:59.637Z,84.66
2023-01-18T01:58:27.258Z,84.66
2023-01-18T02:00:55.640Z,84.95
2023-01-18T02:03:23.344Z,84.83
2023-01-18T02:05:51.355Z,84.22
2023-01-18T02:08:25.189Z,84.45
2023-01-18T02:10:52.803Z,84.14
2023-01-18T02:13:20.407Z,84.05
2023-01-18T02:15:48.066Z,84.40
2023-01-18T02:18:16.150Z,84.38
2023-01-18T02:20:43.733Z,84.60
2023-01-18T02:23:11.373Z,84.86
2023-01-18T02:25:39.012Z,84.74
2023-01-18T02:28:06.667Z,84.62
2023-01-18T02:30:35.155Z,84.71
2023-01-18T02:48:46.891Z,84.30
2023-01-18T02:51:14.557Z,84.26
2023-01-18T02:53:42.151Z,84.24
2023-01-18T02:56:09.755Z,84.08
2023-01-18T02:58:37.401Z,84.05
2023-01-18T03:01:05.679Z,84.26
2023-01-18T03:03:33.367Z,84.45
2023-01-18T03:06:01.886Z,84.35
2023-01-18T03:08:29.588Z,84.95
2023-01-18T03:10:57.255Z,84.49
2023-01-18T03:13:26.674Z,84.24
2023-01-18T03:15:54.301Z,84.29
2023-01-18T03:18:21.954Z,84.23
2023-01-18T03:20:49.557Z,83.95
2023-01-18T03:23:34.573Z,84.61
2023-01-18T03:26:02.190Z,84.34
2023-01-18T03:28:47.427Z,84.64
2023-01-18T03:31:32.367Z,84.00
2023-01-18T03:34:00.780Z,84.65
2023-01-18T03:36:28.625Z,84.40
2023-01-18T03:38:56.249Z,84.36
2023-01-18T03:41:23.807Z,84.66
2023-01-18T03:43:51.417Z,85.18
2023-01-18T03:46:19.407Z,84.41
2023-01-18T03:48:47.221Z,84.69
2023-01-18T03:51:14.884Z,84.44
2023-01-18T03:53:42.573Z,84.60
2023-01-18T03:56:10.632Z,84.19
2023-01-18T03:58:38.668Z,84.60
2023-01-18T04:01:06.493Z,84.64
2023-01-18T04:03:34.100Z,84.57
2023-01-18T04:06:01.760Z,84.86
2023-01-18T04:08:29.435Z,84.42
2023-01-18T04:10:57.421Z,84.76
2023-01-18T04:13:24.998Z,84.79
2023-01-18T04:15:52.666Z,84.57
2023-01-18T04:18:20.758Z,84.51
2023-01-18T04:20:49.197Z,84.58
2023-01-18T04:23:17.208Z,83.91
2023-01-18T04:25:50.065Z,84.16
2023-01-18T04:28:25.538Z,84.74
2023-01-18T04:30:53.616Z,84.12
2023-01-18T04:33:22.263Z,84.34
2023-01-18T04:35:49.944Z,84.32
2023-01-18T04:38:17.556Z,84.75
2023-01-18T04:40:45.127Z,84.49
2023-01-18T04:43:12.754Z,84.36
2023-01-18T04:45:40.724Z,84.65
2023-01-18T04:48:08.421Z,84.41
2023-01-18T04:50:36.061Z,84.54
2023-01-18T04:53:03.950Z,84.01
2023-01-18T04:55:31.522Z,83.82
2023-01-18T04:57:59.881Z,84.23
2023-01-18T05:00:28.890Z,84.43
2023-01-18T05:02:56.820Z,84.59
2023-01-18T05:05:26.335Z,84.52
2023-01-18T05:07:54.111Z,84.67
2023-01-18T05:10:21.751Z,84.18
2023-01-18T05:12:49.406Z,84.02
2023-01-18T05:15:18.390Z,84.20
2023-01-18T05:17:46.019Z,84.24
2023-01-18T05:20:13.656Z,84.40
2023-01-18T05:22:41.752Z,84.43
2023-01-18T05:25:09.480Z,84.71
2023-01-18T05:27:37.738Z,84.44
2023-01-18T05:30:06.768Z,84.38
2023-01-18T05:32:34.592Z,84.43
2023-01-18T05:35:02.629Z,84.71
2023-01-18T05:37:30.210Z,84.36
2023-01-18T05:39:57.967Z,84.26
2023-01-18T05:42:25.675Z,84.15
2023-01-18T05:44:53.607Z,84.52
2023-01-18T05:47:21.602Z,84.22
2023-01-18T05:49:49.711Z,84.63
2023-01-18T05:52:18.176Z,84.74
2023-01-18T05:54:45.798Z,84.53
2023-01-18T05:57:13.477Z,84.57
2023-01-18T05:59:41.173Z,84.34
2023-01-18T06:02:08.860Z,84.60
2023-01-18T06:04:36.689Z,84.21
2023-01-18T06:07:04.669Z,84.15
2023-01-18T06:09:32.541Z,84.64
2023-01-18T06:12:00.360Z,83.82
2023-01-18T06:14:28.029Z,84.36
2023-01-18T06:16:55.787Z,84.70
2023-01-18T06:19:23.644Z,84.57
2023-01-18T06:21:51.324Z,84.61
2023-01-18T06:24:19.316Z,84.70
2023-01-18T06:26:47.416Z,84.59
2023-01-18T06:29:15.375Z,84.70
2023-01-18T06:31:43.130Z,84.94
2023-01-18T06:34:10.957Z,84.13
2023-01-18T06:36:39.004Z,84.45
2023-01-18T06:39:06.685Z,84.65
2023-01-18T06:41:34.430Z,84.62
2023-01-18T06:44:02.055Z,84.32
2023-01-18T06:46:29.818Z,84.33
2023-01-18T06:48:57.984Z,84.39
2023-01-18T06:51:26.021Z,84.72
2023-01-18T06:53:53.679Z,84.37
2023-01-18T06:56:21.361Z,84.52
2023-01-18T06:58:49.224Z,84.76
2023-01-18T07:01:18.837Z,84.13
2023-01-18T07:03:46.928Z,84.46
2023-01-18T07:06:14.631Z,84.63
2023-01-18T07:08:42.350Z,84.46
2023-01-18T07:11:10.562Z,84.35
2023-01-18T07:13:40.605Z,84.46
2023-01-18T07:16:08.570Z,84.41
2023-01-18T07:18:36.471Z,84.71
2023-01-18T07:21:04.151Z,84.74
2023-01-18T07:23:31.977Z,84.29
2023-01-18T07:25:59.993Z,84.14
2023-01-18T07:28:27.904Z,84.38
2023-01-18T07:30:55.595Z,84.21
2023-01-18T07:33:23.913Z,84.54
2023-01-18T07:35:51.618Z,84.51
2023-01-18T07:38:20.256Z,84.42
2023-01-18T07:40:48.213Z,84.42
2023-01-18T07:43:15.979Z,84.67
2023-01-18T07:45:44.027Z,84.40
2023-01-18T07:48:11.805Z,84.45
2023-01-18T07:50:39.513Z,84.42
2023-01-18T07:53:09.376Z,84.46
2023-01-18T07:55:39.083Z,84.19
2023-01-18T07:58:06.869Z,84.44
2023-01-18T08:00:35.079Z,84.36
2023-01-18T08:03:03.745Z,84.37
2023-01-18T08:05:31.940Z,84.27
2023-01-18T08:07:59.806Z,84.02
2023-01-18T08:10:28.045Z,83.88
2023-01-18T08:12:56.171Z,83.72
2023-01-18T08:15:24.339Z,84.01
2023-01-18T08:17:55.619Z,84.31
2023-01-18T08:20:23.812Z,83.62
2023-01-18T08:22:51.680Z,83.49
2023-01-18T08:25:19.615Z,84.13
2023-01-18T08:27:48.079Z,83.65
2023-01-18T08:30:15.787Z,83.79
2023-01-18T08:32:43.726Z,83.47
2023-01-18T08:35:11.531Z,83.59
2023-01-18T08:37:40.163Z,83.83
2023-01-18T08:40:09.155Z,84.03
2023-01-18T08:42:36.987Z,83.43
2023-01-18T08:45:04.763Z,83.74
2023-01-18T08:47:32.616Z,83.14
2023-01-18T08:50:00.297Z,83.26
2023-01-18T08:52:28.268Z,83.55
2023-01-18T08:54:56.097Z,83.44
2023-01-18T08:57:24.093Z,83.07
2023-01-18T08:59:52.103Z,83.25
2023-01-18T09:02:20.471Z,82.56
2023-01-18T09:04:49.858Z,82.97
2023-01-18T09:07:18.105Z,82.58
2023-01-18T09:09:46.143Z,82.75
2023-01-18T09:12:13.942Z,82.85
2023-01-18T09:14:41.972Z,82.86
2023-01-18T09:17:10.346Z,82.50
2023-01-18T09:19:38.320Z,82.23
2023-01-18T09:22:06.563Z,81.75
2023-01-18T09:24:34.526Z,82.39
2023-01-18T09:27:02.441Z,81.56
2023-01-18T09:29:31.835Z,81.82
2023-01-18T09:32:00.639Z,81.46
2023-01-18T09:34:28.587Z,80.91
2023-01-18T09:36:56.400Z,81.83
2023-01-18T09:39:24.357Z,80.52
2023-01-18T09:41:53.037Z,81.23
2023-01-18T09:44:21.091Z,81.48
2023-01-18T09:46:49.732Z,80.93
2023-01-18T09:49:18.488Z,81.10
2023-01-18T09:51:46.340Z,80.90
2023-01-18T09:54:14.879Z,80.61
2023-01-18T09:56:42.882Z,80.77
2023-01-18T09:59:10.806Z,80.29
2023-01-18T10:01:39.044Z,80.34
2023-01-18T10:04:07.016Z,80.70
2023-01-18T10:06:35.140Z,80.45
2023-01-18T10:09:04.668Z,79.67
2023-01-18T10:11:32.525Z,79.44
2023-01-18T10:14:00.407Z,79.79
2023-01-18T10:16:28.353Z,79.31
2023-01-18T10:18:59.302Z,79.24
2023-01-18T10:21:27.360Z,79.07
2023-01-18T10:23:55.427Z,78.62
2023-01-18T10:26:23.229Z,78.19
2023-01-18T10:28:51.237Z,77.14
2023-01-18T10:31:20.397Z,77.03
2023-01-18T10:33:48.695Z,77.13
2023-01-18T10:36:16.525Z,76.46
2023-01-18T10:38:44.425Z,75.71
2023-01-18T10:41:12.312Z,75.30
2023-01-18T10:43:40.959Z,75.07
2023-01-18T10:46:08.979Z,74.64
2023-01-18T10:48:36.875Z,75.15
2023-01-18T10:51:05.490Z,75.04
2023-01-18T10:53:33.453Z,74.37
2023-01-18T10:56:02.877Z,74.61
2023-01-18T10:58:31.544Z,75.02
2023-01-18T11:00:59.768Z,75.66
2023-01-18T11:03:28.676Z,75.32
2023-01-18T11:05:56.583Z,75.18
2023-01-18T11:08:24.591Z,75.02
2023-01-18T11:10:52.724Z,75.39
2023-01-18T11:13:20.922Z,75.66
2023-01-18T11:15:48.928Z,75.37
2023-01-18T11:18:17.766Z,75.38
2023-01-18T11:20:46.810Z,74.85
2023-01-18T11:23:15.197Z,75.56
2023-01-18T11:25:43.101Z,75.73
2023-01-18T11:28:11.081Z,75.87
2023-01-18T11:30:39.151Z,75.90
2023-01-18T11:33:07.606Z,76.10
2023-01-18T11:35:36.617Z,75.88
2023-01-18T11:38:04.632Z,75.22
2023-01-18T11:40:32.588Z,74.63
2023-01-18T11:43:01.906Z,74.75
2023-01-18T11:45:30.359Z,74.22
2023-01-18T11:47:59.087Z,74.06
2023-01-18T11:50:28.499Z,74.33
2023-01-18T11:52:56.400Z,75.13
2023-01-18T11:55:24.220Z,75.36
2023-01-18T11:57:52.851Z,74.64
2023-01-18T12:00:28.576Z,73.57
2023-01-18T12:02:56.720Z,74.13
2023-01-18T12:05:25.894Z,74.02
2023-01-18T12:07:54.846Z,74.22
2023-01-18T12:10:23.820Z,74.04
2023-01-18T12:12:53.765Z,74.31
2023-01-18T12:15:21.608Z,74.09
2023-01-18T12:17:49.467Z,73.92
2023-01-18T12:20:19.887Z,74.32
2023-01-18T12:22:47.869Z,74.22
2023-01-18T12:25:15.715Z,73.75
2023-01-18T12:27:43.623Z,74.03
2023-01-18T12:30:13.931Z,73.67
2023-01-18T12:32:42.503Z,73.82
2023-01-18T12:35:23.239Z,73.24
2023-01-18T12:37:52.639Z,73.27
2023-01-18T12:40:20.497Z,73.41
2023-01-18T12:42:49.031Z,73.94
2023-01-18T12:45:17.304Z,74.00
2023-01-18T12:47:47.952Z,74.33
2023-01-18T12:50:15.747Z,74.19
2023-01-18T12:52:43.642Z,74.46
2023-01-18T12:55:12.078Z,74.45
2023-01-18T12:57:40.085Z,74.55
2023-01-18T13:00:09.668Z,74.88
2023-01-18T13:02:37.656Z,74.42
2023-01-18T13:05:05.642Z,74.57
2023-01-18T13:07:34.452Z,74.48
2023-01-18T13:10:02.575Z,74.62
2023-01-18T13:12:30.643Z,74.91
2023-01-18T13:15:02.052Z,74.90
2023-01-18T13:17:29.901Z,74.22
2023-01-18T13:20:00.801Z,74.07
2023-01-18T13:22:29.043Z,73.76
2023-01-18T13:24:56.896Z,73.61
2023-01-18T13:27:24.741Z,73.38
2023-01-18T13:29:52.888Z,72.65
2023-01-18T13:32:21.534Z,72.08
2023-01-18T13:34:49.859Z,72.51
2023-01-18T13:37:17.823Z,72.40
2023-01-18T13:39:45.565Z,72.54
2023-01-18T13:42:13.724Z,72.28
2023-01-18T13:44:42.561Z,71.96
2023-01-18T13:47:11.045Z,71.47
2023-01-18T13:49:39.080Z,71.33
2023-01-18T13:52:07.015Z,71.18
2023-01-18T13:54:35.050Z,71.59
2023-01-18T13:57:03.659Z,71.50
2023-01-18T13:59:32.005Z,72.18
2023-01-18T14:01:59.983Z,72.39
2023-01-18T14:04:28.290Z,72.66
2023-01-18T14:06:56.292Z,72.66
2023-01-18T14:09:24.679Z,72.05
2023-01-18T14:11:52.760Z,71.60
2023-01-18T14:14:20.985Z,71.13
2023-01-18T14:16:48.744Z,71.03
2023-01-18T14:19:17.279Z,71.33
2023-01-18T14:21:45.404Z,71.35
2023-01-18T14:24:13.288Z,72.32
2023-01-18T14:26:41.755Z,71.51
2023-01-18T14:29:10.444Z,71.41
2023-01-18T14:31:38.527Z,71.03
2023-01-18T14:34:07.628Z,71.19
2023-01-18T14:36:35.863Z,71.33
2023-01-18T14:39:04.341Z,71.72
2023-01-18T14:41:32.209Z,71.94
2023-01-18T14:44:00.165Z,72.26
2023-01-18T14:46:28.107Z,71.68
2023-01-18T14:48:57.539Z,71.69
2023-01-18T14:51:25.464Z,70.73
2023-01-18T14:53:53.429Z,69.97
2023-01-18T14:56:21.332Z,69.78
2023-01-18T14:58:50.007Z,69.82
2023-01-18T15:01:18.364Z,70.65
2023-01-18T15:03:47.293Z,71.79
2023-01-18T15:06:15.522Z,72.54
2023-01-18T15:08:43.726Z,73.92
2023-01-18T15:11:12.162Z,74.00
2023-01-18T15:13:41.979Z,74.59
2023-01-18T15:16:09.991Z,74.85
2023-01-18T15:18:37.924Z,74.91
2023-01-18T15:21:06.525Z,75.64
2023-01-18T15:23:35.203Z,75.86
2023-01-18T15:26:03.313Z,76.43
2023-01-18T15:28:31.235Z,76.71
2023-01-18T15:30:59.139Z,76.47
2023-01-18T15:33:27.531Z,76.51
2023-01-18T15:35:55.997Z,76.78
2023-01-18T15:38:24.307Z,76.53
2023-01-18T15:40:52.117Z,76.36
2023-01-18T15:43:20.312Z,76.73
2023-01-18T15:45:49.827Z,76.66
2023-01-18T15:48:22.560Z,77.05
2023-01-18T15:50:51.261Z,77.29
2023-01-18T15:53:19.123Z,77.48
2023-01-18T15:55:47.362Z,77.14
2023-01-18T15:58:15.496Z,77.74
2023-01-18T16:00:43.907Z,77.92
2023-01-18T16:03:12.294Z,77.95
2023-01-18T16:05:40.384Z,77.62
2023-01-18T16:08:15.854Z,77.46
2023-01-18T16:10:44.578Z,77.55
2023-01-18T16:13:12.673Z,77.40
2023-01-18T16:15:40.927Z,77.98
2023-01-18T16:18:08.985Z,77.87
2023-01-18T16:20:36.917Z,78.19
2023-01-18T16:23:05.104Z,78.21
2023-01-18T16:25:33.377Z,78.04
2023-01-18T16:28:02.576Z,77.91
2023-01-18T16:30:30.856Z,78.09
2023-01-18T16:32:59.140Z,78.16
2023-01-18T16:35:27.192Z,78.16
2023-01-18T16:37:58.093Z,78.56
2023-01-18T16:40:26.530Z,78.32
2023-01-18T16:42:54.451Z,78.03
2023-01-18T16:45:22.470Z,78.09
2023-01-18T16:47:51.085Z,78.29
2023-01-18T16:50:19.319Z,78.77
2023-01-18T16:52:47.101Z,78.42
2023-01-18T16:55:15.208Z,79.00
2023-01-18T16:57:43.245Z,78.71
2023-01-18T17:00:12.004Z,78.79
2023-01-18T17:02:40.261Z,78.59
2023-01-18T17:05:08.104Z,78.31
2023-01-18T17:07:36.089Z,78.44
2023-01-18T17:10:03.973Z,77.99
2023-01-18T17:12:32.235Z,78.76
2023-01-18T17:15:00.307Z,78.49
2023-01-18T17:17:28.373Z,79.05
2023-01-18T17:19:56.191Z,78.48
2023-01-18T17:22:24.013Z,77.95
2023-01-18T17:24:54.979Z,78.08
2023-01-18T17:27:23.675Z,78.31
2023-01-18T17:29:51.463Z,78.18
2023-01-18T17:32:19.414Z,78.60
2023-01-18T17:34:47.231Z,77.97
2023-01-18T17:37:15.850Z,78.23
2023-01-18T17:39:54.928Z,78.14
2023-01-18T17:42:31.030Z,77.77
2023-01-18T17:45:04.226Z,78.15
2023-01-18T17:47:32.405Z,77.95
2023-01-18T17:50:01.006Z,77.82
2023-01-18T17:52:29.017Z,78.00
2023-01-18T17:54:56.892Z,77.65
2023-01-18T17:57:24.631Z,77.54
2023-01-18T17:59:56.489Z,77.97
2023-01-18T18:02:24.687Z,77.97
2023-01-18T18:04:52.692Z,78.05
2023-01-18T18:07:20.656Z,77.35
2023-01-18T18:09:48.465Z,77.08
2023-01-18T18:12:16.252Z,77.83
2023-01-18T18:14:44.458Z,77.46
2023-01-18T18:17:12.311Z,77.28
2023-01-18T18:19:40.167Z,77.22
2023-01-18T18:22:08.097Z,77.65
2023-01-18T18:24:36.287Z,77.04
2023-01-18T18:27:04.536Z,77.42
2023-01-18T18:29:32.371Z,77.56
2023-01-18T18:32:00.229Z,77.06
2023-01-18T18:34:28.026Z,76.95
2023-01-18T18:36:56.478Z,76.87
2023-01-18T18:39:24.720Z,77.02
2023-01-18T18:41:53.161Z,77.82
2023-01-18T18:44:21.064Z,76.71
2023-01-18T18:46:49.212Z,76.73
2023-01-18T18:49:17.510Z,76.92
2023-01-18T18:51:45.658Z,77.17
2023-01-18T18:54:13.499Z,76.94
2023-01-18T18:56:41.834Z,76.45
2023-01-18T18:59:10.013Z,76.66
2023-01-18T19:01:38.500Z,76.88
2023-01-18T19:04:06.775Z,76.22
2023-01-18T19:06:35.670Z,76.29
2023-01-18T19:09:05.582Z,76.37
2023-01-18T19:11:34.684Z,76.18
2023-01-18T19:14:03.192Z,76.33
2023-01-18T19:16:31.471Z,76.26
2023-01-18T19:18:59.401Z,76.18
2023-01-18T19:21:27.448Z,76.48
2023-01-18T19:23:55.412Z,76.51
2023-01-18T19:26:23.883Z,75.97
2023-01-18T19:28:52.221Z,76.01
2023-01-18T19:31:20.446Z,76.10
2023-01-18T19:33:48.370Z,76.24
2023-01-18T19:36:16.336Z,75.97
2023-01-18T19:38:46.128Z,75.69
2023-01-18T19:41:14.860Z,75.93
2023-01-18T19:43:43.349Z,76.37
2023-01-18T19:46:11.212Z,75.99
2023-01-18T19:48:39.622Z,76.22
2023-01-18T19:51:20.832Z,76.47
2023-01-18T19:53:49.690Z,76.07
2023-01-18T19:56:17.696Z,76.32
2023-01-18T19:58:45.488Z,76.56
2023-01-18T20:01:23.016Z,76.07
2023-01-18T20:03:58.658Z,76.18
2023-01-18T20:06:26.569Z,76.31
2023-01-18T20:08:54.846Z,76.02
2023-01-18T20:11:23.236Z,76.14
2023-01-18T20:13:51.071Z,75.82
2023-01-18T20:16:20.531Z,76.25
2023-01-18T20:18:49.140Z,75.69
2023-01-18T20:21:17.496Z,75.70
2023-01-18T20:23:46.024Z,75.96
2023-01-18T20:26:15.387Z,76.64
2023-01-18T20:28:44.597Z,75.48
2023-01-18T20:31:12.635Z,75.68
2023-01-18T20:33:41.015Z,75.69
2023-01-18T20:36:09.509Z,76.31
2023-01-18T20:38:38.092Z,76.13
2023-01-18T20:41:06.500Z,76.27
2023-01-18T20:43:34.323Z,76.01
2023-01-18T20:46:02.397Z,76.08
2023-01-18T20:48:30.881Z,76.79
2023-01-18T20:50:58.753Z,75.85
2023-01-18T20:53:26.946Z,75.96
2023-01-18T20:55:55.823Z,76.26
2023-01-18T20:58:23.752Z,76.15
2023-01-18T21:00:51.779Z,76.79
2023-01-18T21:03:19.844Z,76.34
2023-01-18T21:05:48.098Z,76.11
2023-01-18T21:08:17.693Z,75.69
2023-01-18T21:10:45.666Z,75.74
2023-01-18T21:13:13.791Z,75.78
2023-01-18T21:15:46.186Z,75.92
2023-01-18T21:18:15.698Z,76.21
2023-01-18T21:20:43.546Z,75.96
2023-01-18T21:23:11.631Z,75.73
2023-01-18T21:25:39.879Z,76.10
2023-01-18T21:28:07.669Z,75.89
2023-01-18T21:30:37.004Z,76.75
2023-01-18T21:33:04.915Z,75.91
2023-01-18T21:35:32.769Z,76.04
2023-01-18T21:38:03.421Z,75.89
2023-01-18T21:40:31.566Z,75.57
2023-01-18T21:43:16.878Z,75.82
2023-01-18T21:45:57.195Z,75.32
2023-01-18T21:48:25.587Z,75.42
2023-01-18T21:51:10.703Z,75.67
2023-01-18T21:53:56.049Z,76.09
2023-01-18T21:56:24.114Z,75.42
2023-01-18T21:58:55.158Z,75.70
2023-01-18T22:01:25.580Z,75.87
2023-01-18T22:04:10.948Z,75.72
2023-01-18T22:06:38.939Z,76.14
2023-01-18T22:09:07.171Z,76.00
2023-01-18T22:11:35.850Z,76.10
2023-01-18T22:14:04.090Z,76.17
2023-01-18T22:16:32.057Z,76.08
2023-01-18T22:19:00.492Z,76.01
2023-01-18T22:21:28.855Z,76.55
2023-01-18T22:23:56.739Z,75.93
2023-01-18T22:26:24.714Z,77.09
2023-01-18T22:28:52.698Z,76.39
2023-01-18T22:31:20.907Z,77.12
2023-01-18T22:33:49.293Z,76.77
2023-01-18T22:36:17.151Z,76.90
2023-01-18T22:38:45.711Z,76.59
2023-01-18T22:41:13.656Z,77.21
2023-01-18T22:43:42.839Z,77.04
2023-01-18T22:46:11.010Z,77.10
2023-01-18T22:48:38.867Z,77.42
2023-01-18T22:51:07.585Z,76.94
2023-01-18T22:53:35.404Z,77.15
2023-01-18T22:56:03.780Z,77.09
2023-01-18T22:58:32.177Z,77.61
2023-01-18T23:01:00.168Z,77.19
2023-01-18T23:03:28.120Z,77.54
2023-01-18T23:05:56.452Z,77.78
2023-01-18T23:08:24.489Z,77.30
2023-01-18T23:10:52.619Z,77.38
2023-01-18T23:13:20.459Z,77.07
2023-01-18T23:16:05.381Z,77.35
2023-01-18T23:18:33.668Z,77.29
2023-01-18T23:21:01.811Z,77.24
2023-01-18T23:23:29.612Z,77.06
2023-01-18T23:25:57.682Z,77.33
2023-01-18T23:28:41.613Z,77.36
2023-01-18T23:31:10.385Z,78.06
2023-01-18T23:33:38.098Z,77.84
2023-01-18T23:36:05.795Z,77.79
2023-01-18T23:38:50.806Z,78.02
2023-01-18T23:41:36.176Z,77.38
2023-01-18T23:44:21.402Z,77.35
2023-01-18T23:47:06.590Z,77.48
2023-01-18T23:49:51.966Z,77.60
2023-01-18T23:52:37.673Z,78.04
2023-01-18T23:55:05.722Z,77.51
2023-01-18T23:57:33.598Z,77.52
